sensor_id;sensor_type;location;lat;lon;timestamp;temperature;humidity
1405;DHT22;697;51.114;6.542;2023-04-01T00:01:39;11.30;99.90
1405;DHT22;697;51.114;6.542;2023-04-01T00:04:05;11.20;99.90
1405;DHT22;697;51.114;6.542;2023-04-01T00:06:32;11.20;99.90
1405;DHT22;697;51.114;6.542;2023-04-01T00:08:59;11.30;99.90
1405;DHT22;697;51.114;6.542;2023-04-01T00:11:26;11.30;99.90
1405;DHT22;697;51.114;6.542;2023-04-01T00:13:53;11.30;99.90
1405;DHT22;697;51.114;6.542;2023-04-01T00:16:21;11.20;99.90
1405;DHT22;697;51.114;6.542;2023-04-01T00:18:48;11.20;99.90
1405;DHT22;697;51.114;6.542;2023-04-01T00:21:16;11.20;99.90
1405;DHT22;697;51.114;6.542;2023-04-01T00:23:42;11.20;99.90
1405;DHT22;697;51.114;6.542;2023-04-01T00:26:09;11.20;99.90
1405;DHT22;697;51.114;6.542;2023-04-01T00:28:37;11.20;99.90
1405;DHT22;697;51.114;6.542;2023-04-01T00:31:05;11.20;99.90
1405;DHT22;697;51.114;6.542;2023-04-01T00:33:33;11.20;99.90
1405;DHT22;697;51.114;6.542;2023-04-01T00:36:06;11.10;99.90
1405;DHT22;697;51.114;6.542;2023-04-01T00:38:33;11.10;99.90
1405;DHT22;697;51.114;6.542;2023-04-01T00:41:00;11.10;99.90
1405;DHT22;697;51.114;6.542;2023-04-01T00:43:27;11.10;99.90
1405;DHT22;697;51.114;6.542;2023-04-01T00:45:54;11.10;99.90
1405;DHT22;697;51.114;6.542;2023-04-01T00:48:23;11.10;99.90
1405;DHT22;697;51.114;6.542;2023-04-01T00:50:55;11.10;99.90
1405;DHT22;697;51.114;6.542;2023-04-01T00:53:23;11.10;99.90
1405;DHT22;697;51.114;6.542;2023-04-01T00:55:55;11.10;99.90
1405;DHT22;697;51.114;6.542;2023-04-01T00:58:24;11.10;99.90
1405;DHT22;697;51.114;6.542;2023-04-01T01:00:52;11.20;99.90
1405;DHT22;697;51.114;6.542;2023-04-01T01:03:19;11.10;99.90
1405;DHT22;697;51.114;6.542;2023-04-01T01:08:58;11.10;99.90
1405;DHT22;697;51.114;6.542;2023-04-01T01:11:35;11.10;99.90
1405;DHT22;697;51.114;6.542;2023-04-01T01:14:09;11.10;99.90
1405;DHT22;697;51.114;6.542;2023-04-01T01:16:43;11.00;99.90
1405;DHT22;697;51.114;6.542;2023-04-01T01:19:23;11.00;99.90
1405;DHT22;697;51.114;6.542;2023-04-01T01:22:10;11.00;99.90
1405;DHT22;697;51.114;6.542;2023-04-01T01:24:58;11.00;99.90
1405;DHT22;697;51.114;6.542;2023-04-01T01:27:29;11.00;99.90
1405;DHT22;697;51.114;6.542;2023-04-01T01:30:15;10.90;99.90
1405;DHT22;697;51.114;6.542;2023-04-01T01:33:18;10.90;99.90
1405;DHT22;697;51.114;6.542;2023-04-01T01:35:49;11.00;99.90
1405;DHT22;697;51.114;6.542;2023-04-01T01:38:21;11.00;99.90
1405;DHT22;697;51.114;6.542;2023-04-01T01:40:50;10.90;99.90
1405;DHT22;697;51.114;6.542;2023-04-01T01:43:21;11.00;99.90
1405;DHT22;697;51.114;6.542;2023-04-01T01:45:51;10.90;99.90
1405;DHT22;697;51.114;6.542;2023-04-01T01:48:19;11.00;99.90
1405;DHT22;697;51.114;6.542;2023-04-01T01:50:49;11.00;99.90
1405;DHT22;697;51.114;6.542;2023-04-01T01:53:16;11.00;99.90
1405;DHT22;697;51.114;6.542;2023-04-01T01:55:44;11.00;99.90
1405;DHT22;697;51.114;6.542;2023-04-01T01:58:15;11.00;99.90
1405;DHT22;697;51.114;6.542;2023-04-01T02:00:48;11.00;99.90
1405;DHT22;697;51.114;6.542;2023-04-01T02:03:17;11.10;99.90
1405;DHT22;697;51.114;6.542;2023-04-01T02:05:46;11.00;99.90
1405;DHT22;697;51.114;6.542;2023-04-01T02:08:16;11.00;99.90
1405;DHT22;697;51.114;6.542;2023-04-01T02:10:47;11.00;99.90
1405;DHT22;697;51.114;6.542;2023-04-01T02:13:20;11.00;99.90
1405;DHT22;697;51.114;6.542;2023-04-01T02:15:50;11.00;99.90
1405;DHT22;697;51.114;6.542;2023-04-01T02:18:21;11.00;99.90
1405;DHT22;697;51.114;6.542;2023-04-01T02:20:49;11.00;99.90
1405;DHT22;697;51.114;6.542;2023-04-01T02:23:18;11.00;99.90
1405;DHT22;697;51.114;6.542;2023-04-01T02:25:45;10.80;99.90
1405;DHT22;697;51.114;6.542;2023-04-01T02:28:13;10.80;99.90
1405;DHT22;697;51.114;6.542;2023-04-01T02:30:44;10.80;99.90
1405;DHT22;697;51.114;6.542;2023-04-01T02:33:12;10.70;99.90
1405;DHT22;697;51.114;6.542;2023-04-01T02:35:39;10.70;99.90
1405;DHT22;697;51.114;6.542;2023-04-01T02:38:06;10.60;99.90
1405;DHT22;697;51.114;6.542;2023-04-01T02:40:46;10.60;99.90
1405;DHT22;697;51.114;6.542;2023-04-01T02:43:13;10.60;99.90
1405;DHT22;697;51.114;6.542;2023-04-01T02:45:41;10.60;99.90
1405;DHT22;697;51.114;6.542;2023-04-01T02:48:08;10.60;99.90
1405;DHT22;697;51.114;6.542;2023-04-01T02:50:35;10.50;99.90
1405;DHT22;697;51.114;6.542;2023-04-01T02:53:01;10.50;99.90
1405;DHT22;697;51.114;6.542;2023-04-01T02:55:29;10.50;99.90
1405;DHT22;697;51.114;6.542;2023-04-01T02:57:57;10.50;99.90
1405;DHT22;697;51.114;6.542;2023-04-01T03:00:24;10.50;99.90
1405;DHT22;697;51.114;6.542;2023-04-01T03:02:51;10.40;99.90
1405;DHT22;697;51.114;6.542;2023-04-01T03:05:19;10.40;99.90
1405;DHT22;697;51.114;6.542;2023-04-01T03:07:45;10.40;99.90
1405;DHT22;697;51.114;6.542;2023-04-01T03:10:12;10.40;99.90
1405;DHT22;697;51.114;6.542;2023-04-01T03:12:39;10.40;99.90
1405;DHT22;697;51.114;6.542;2023-04-01T03:15:10;10.40;99.90
1405;DHT22;697;51.114;6.542;2023-04-01T03:17:37;10.50;99.90
1405;DHT22;697;51.114;6.542;2023-04-01T03:20:04;10.40;99.90
1405;DHT22;697;51.114;6.542;2023-04-01T03:22:31;10.40;99.90
1405;DHT22;697;51.114;6.542;2023-04-01T03:24:58;10.50;99.90
1405;DHT22;697;51.114;6.542;2023-04-01T03:27:24;10.50;99.90
1405;DHT22;697;51.114;6.542;2023-04-01T03:29:51;10.50;99.90
1405;DHT22;697;51.114;6.542;2023-04-01T03:32:19;10.60;99.90
1405;DHT22;697;51.114;6.542;2023-04-01T03:34:46;10.60;99.90
1405;DHT22;697;51.114;6.542;2023-04-01T03:37:12;10.60;99.90
1405;DHT22;697;51.114;6.542;2023-04-01T03:39:39;10.60;99.90
1405;DHT22;697;51.114;6.542;2023-04-01T03:42:06;10.50;99.90
1405;DHT22;697;51.114;6.542;2023-04-01T03:44:33;10.50;99.90
1405;DHT22;697;51.114;6.542;2023-04-01T03:47:00;10.50;99.90
1405;DHT22;697;51.114;6.542;2023-04-01T03:49:28;10.50;99.90
1405;DHT22;697;51.114;6.542;2023-04-01T03:51:55;10.50;99.90
1405;DHT22;697;51.114;6.542;2023-04-01T03:54:22;10.50;99.90
1405;DHT22;697;51.114;6.542;2023-04-01T03:56:48;10.50;99.90
1405;DHT22;697;51.114;6.542;2023-04-01T03:59:15;10.50;99.90
1405;DHT22;697;51.114;6.542;2023-04-01T04:01:42;10.60;99.90
1405;DHT22;697;51.114;6.542;2023-04-01T04:04:10;10.60;99.90
1405;DHT22;697;51.114;6.542;2023-04-01T04:06:39;10.60;99.90
1405;DHT22;697;51.114;6.542;2023-04-01T04:09:06;10.60;99.90
1405;DHT22;697;51.114;6.542;2023-04-01T04:11:33;10.60;99.90
1405;DHT22;697;51.114;6.542;2023-04-01T04:14:00;10.60;99.90
1405;DHT22;697;51.114;6.542;2023-04-01T04:16:27;10.60;99.90
1405;DHT22;697;51.114;6.542;2023-04-01T04:18:54;10.60;99.90
1405;DHT22;697;51.114;6.542;2023-04-01T04:21:20;10.60;99.90
1405;DHT22;697;51.114;6.542;2023-04-01T04:23:48;10.60;99.90
1405;DHT22;697;51.114;6.542;2023-04-01T04:26:16;10.50;99.90
1405;DHT22;697;51.114;6.542;2023-04-01T04:28:42;10.50;99.90
1405;DHT22;697;51.114;6.542;2023-04-01T04:31:09;10.50;99.90
1405;DHT22;697;51.114;6.542;2023-04-01T04:33:36;10.50;99.90
1405;DHT22;697;51.114;6.542;2023-04-01T04:36:04;10.50;99.90
1405;DHT22;697;51.114;6.542;2023-04-01T04:38:31;10.50;99.90
1405;DHT22;697;51.114;6.542;2023-04-01T04:40:59;10.50;99.90
1405;DHT22;697;51.114;6.542;2023-04-01T04:43:25;10.50;99.90
1405;DHT22;697;51.114;6.542;2023-04-01T04:45:52;10.50;99.90
1405;DHT22;697;51.114;6.542;2023-04-01T04:48:19;10.40;99.90
1405;DHT22;697;51.114;6.542;2023-04-01T04:50:46;10.40;99.90
1405;DHT22;697;51.114;6.542;2023-04-01T04:53:13;10.40;99.90
1405;DHT22;697;51.114;6.542;2023-04-01T04:55:43;10.40;99.90
1405;DHT22;697;51.114;6.542;2023-04-01T04:58:11;10.40;99.90
1405;DHT22;697;51.114;6.542;2023-04-01T05:00:37;10.40;99.90
1405;DHT22;697;51.114;6.542;2023-04-01T05:03:04;10.40;99.90
1405;DHT22;697;51.114;6.542;2023-04-01T05:05:31;10.40;99.90
1405;DHT22;697;51.114;6.542;2023-04-01T05:07:58;10.40;99.90
1405;DHT22;697;51.114;6.542;2023-04-01T05:10:24;10.40;99.90
1405;DHT22;697;51.114;6.542;2023-04-01T05:12:51;10.40;99.90
1405;DHT22;697;51.114;6.542;2023-04-01T05:15:19;10.40;99.90
1405;DHT22;697;51.114;6.542;2023-04-01T05:17:46;10.40;99.90
1405;DHT22;697;51.114;6.542;2023-04-01T05:20:13;10.40;99.90
1405;DHT22;697;51.114;6.542;2023-04-01T05:22:40;10.40;99.90
1405;DHT22;697;51.114;6.542;2023-04-01T05:25:07;10.40;99.90
1405;DHT22;697;51.114;6.542;2023-04-01T05:27:34;10.40;99.90
1405;DHT22;697;51.114;6.542;2023-04-01T05:30:01;10.40;99.90
1405;DHT22;697;51.114;6.542;2023-04-01T05:32:30;10.40;99.90
1405;DHT22;697;51.114;6.542;2023-04-01T05:34:57;10.40;99.90
1405;DHT22;697;51.114;6.542;2023-04-01T05:37:24;10.40;99.90
1405;DHT22;697;51.114;6.542;2023-04-01T05:39:51;10.40;99.90
1405;DHT22;697;51.114;6.542;2023-04-01T05:42:17;10.40;99.90
1405;DHT22;697;51.114;6.542;2023-04-01T05:44:44;10.50;99.90
1405;DHT22;697;51.114;6.542;2023-04-01T05:47:11;10.50;99.90
1405;DHT22;697;51.114;6.542;2023-04-01T05:49:39;10.50;99.90
1405;DHT22;697;51.114;6.542;2023-04-01T05:52:05;10.50;99.90
1405;DHT22;697;51.114;6.542;2023-04-01T05:54:33;10.50;99.90
1405;DHT22;697;51.114;6.542;2023-04-01T05:56:59;10.50;99.90
1405;DHT22;697;51.114;6.542;2023-04-01T05:59:26;10.40;99.90
1405;DHT22;697;51.114;6.542;2023-04-01T06:01:53;10.50;99.90
1405;DHT22;697;51.114;6.542;2023-04-01T06:04:19;10.40;99.90
1405;DHT22;697;51.114;6.542;2023-04-01T06:06:48;10.40;99.90
1405;DHT22;697;51.114;6.542;2023-04-01T06:09:16;10.40;99.90
1405;DHT22;697;51.114;6.542;2023-04-01T06:11:55;10.50;99.90
1405;DHT22;697;51.114;6.542;2023-04-01T06:14:32;10.50;99.90
1405;DHT22;697;51.114;6.542;2023-04-01T06:17:18;10.50;99.90
1405;DHT22;697;51.114;6.542;2023-04-01T06:19:52;10.50;99.90
1405;DHT22;697;51.114;6.542;2023-04-01T06:22:56;10.50;99.90
1405;DHT22;697;51.114;6.542;2023-04-01T06:25:54;10.50;99.90
1405;DHT22;697;51.114;6.542;2023-04-01T06:28:48;10.50;99.90
1405;DHT22;697;51.114;6.542;2023-04-01T06:31:28;10.60;99.90
1405;DHT22;697;51.114;6.542;2023-04-01T06:34:14;10.60;99.90
1405;DHT22;697;51.114;6.542;2023-04-01T06:36:59;10.60;99.90
1405;DHT22;697;51.114;6.542;2023-04-01T06:39:47;10.50;99.90
1405;DHT22;697;51.114;6.542;2023-04-01T06:42:45;10.50;99.90
1405;DHT22;697;51.114;6.542;2023-04-01T06:45:26;10.50;99.90
1405;DHT22;697;51.114;6.542;2023-04-01T06:48:06;10.40;99.90
1405;DHT22;697;51.114;6.542;2023-04-01T06:50:53;10.50;99.90
1405;DHT22;697;51.114;6.542;2023-04-01T06:53:27;10.40;99.90
1405;DHT22;697;51.114;6.542;2023-04-01T06:56:00;10.40;99.90
1405;DHT22;697;51.114;6.542;2023-04-01T06:58:31;10.40;99.90
1405;DHT22;697;51.114;6.542;2023-04-01T07:01:03;10.40;99.90
1405;DHT22;697;51.114;6.542;2023-04-01T07:03:33;10.40;99.90
1405;DHT22;697;51.114;6.542;2023-04-01T07:06:03;10.40;99.90
1405;DHT22;697;51.114;6.542;2023-04-01T07:08:33;10.40;99.90
1405;DHT22;697;51.114;6.542;2023-04-01T07:11:04;10.40;99.90
1405;DHT22;697;51.114;6.542;2023-04-01T07:13:34;10.50;99.90
1405;DHT22;697;51.114;6.542;2023-04-01T07:16:11;10.50;99.90
1405;DHT22;697;51.114;6.542;2023-04-01T07:18:42;10.50;99.90
1405;DHT22;697;51.114;6.542;2023-04-01T07:21:20;10.50;99.90
1405;DHT22;697;51.114;6.542;2023-04-01T07:23:48;10.50;99.90
1405;DHT22;697;51.114;6.542;2023-04-01T07:26:20;10.50;99.90
1405;DHT22;697;51.114;6.542;2023-04-01T07:28:47;10.50;99.90
1405;DHT22;697;51.114;6.542;2023-04-01T07:31:20;10.60;99.90
1405;DHT22;697;51.114;6.542;2023-04-01T07:33:55;10.50;99.90
1405;DHT22;697;51.114;6.542;2023-04-01T07:36:32;10.50;99.90
1405;DHT22;697;51.114;6.542;2023-04-01T07:39:06;10.60;99.90
1405;DHT22;697;51.114;6.542;2023-04-01T07:41:44;10.50;99.90
1405;DHT22;697;51.114;6.542;2023-04-01T07:44:21;10.50;99.90
1405;DHT22;697;51.114;6.542;2023-04-01T07:46:59;10.50;99.90
1405;DHT22;697;51.114;6.542;2023-04-01T07:49:38;10.50;99.90
1405;DHT22;697;51.114;6.542;2023-04-01T07:52:11;10.60;99.90
1405;DHT22;697;51.114;6.542;2023-04-01T07:54:44;10.60;99.90
1405;DHT22;697;51.114;6.542;2023-04-01T07:57:19;10.70;99.90
1405;DHT22;697;51.114;6.542;2023-04-01T07:59:55;10.70;99.90
1405;DHT22;697;51.114;6.542;2023-04-01T08:02:32;10.70;99.90
1405;DHT22;697;51.114;6.542;2023-04-01T08:05:09;10.70;99.90
1405;DHT22;697;51.114;6.542;2023-04-01T08:07:44;10.70;99.90
1405;DHT22;697;51.114;6.542;2023-04-01T08:10:17;10.70;99.90
1405;DHT22;697;51.114;6.542;2023-04-01T08:12:55;10.70;99.90
1405;DHT22;697;51.114;6.542;2023-04-01T08:15:27;10.70;99.90
1405;DHT22;697;51.114;6.542;2023-04-01T08:18:03;10.70;99.90
1405;DHT22;697;51.114;6.542;2023-04-01T08:20:34;10.80;99.90
1405;DHT22;697;51.114;6.542;2023-04-01T08:23:07;10.80;99.90
1405;DHT22;697;51.114;6.542;2023-04-01T08:25:39;10.80;99.90
1405;DHT22;697;51.114;6.542;2023-04-01T08:28:15;10.90;99.90
1405;DHT22;697;51.114;6.542;2023-04-01T08:30:47;11.00;99.90
1405;DHT22;697;51.114;6.542;2023-04-01T08:33:19;11.00;99.90
1405;DHT22;697;51.114;6.542;2023-04-01T08:35:51;11.00;99.90
1405;DHT22;697;51.114;6.542;2023-04-01T08:38:21;11.00;99.90
1405;DHT22;697;51.114;6.542;2023-04-01T08:40:59;11.00;99.90
1405;DHT22;697;51.114;6.542;2023-04-01T08:43:54;10.90;99.90
1405;DHT22;697;51.114;6.542;2023-04-01T08:46:47;10.90;99.90
1405;DHT22;697;51.114;6.542;2023-04-01T08:52:36;11.00;99.90
1405;DHT22;697;51.114;6.542;2023-04-01T08:55:27;10.90;99.90
1405;DHT22;697;51.114;6.542;2023-04-01T08:58:19;11.00;99.90
1405;DHT22;697;51.114;6.542;2023-04-01T09:00:53;11.00;99.90
1405;DHT22;697;51.114;6.542;2023-04-01T09:03:41;11.00;99.90
1405;DHT22;697;51.114;6.542;2023-04-01T09:09:21;10.80;99.90
1405;DHT22;697;51.114;6.542;2023-04-01T09:18:19;10.80;99.90
1405;DHT22;697;51.114;6.542;2023-04-01T09:21:02;10.80;99.90
1405;DHT22;697;51.114;6.542;2023-04-01T09:23:47;10.90;99.90
1405;DHT22;697;51.114;6.542;2023-04-01T09:26:48;10.90;99.90
1405;DHT22;697;51.114;6.542;2023-04-01T09:29:32;10.90;99.90
1405;DHT22;697;51.114;6.542;2023-04-01T09:32:20;10.90;99.90
1405;DHT22;697;51.114;6.542;2023-04-01T09:34:57;10.90;99.90
1405;DHT22;697;51.114;6.542;2023-04-01T09:37:51;10.80;99.90
1405;DHT22;697;51.114;6.542;2023-04-01T09:40:24;10.70;99.90
1405;DHT22;697;51.114;6.542;2023-04-01T09:45:58;10.80;99.90
1405;DHT22;697;51.114;6.542;2023-04-01T09:51:34;10.70;99.90
1405;DHT22;697;51.114;6.542;2023-04-01T09:54:20;10.80;99.90
1405;DHT22;697;51.114;6.542;2023-04-01T09:57:09;10.80;99.90
1405;DHT22;697;51.114;6.542;2023-04-01T10:06:38;11.00;99.90
1405;DHT22;697;51.114;6.542;2023-04-01T10:09:44;11.00;99.90
1405;DHT22;697;51.114;6.542;2023-04-01T10:12:49;11.20;99.90
1405;DHT22;697;51.114;6.542;2023-04-01T10:18:26;11.10;99.90
1405;DHT22;697;51.114;6.542;2023-04-01T10:21:16;11.10;99.90
1405;DHT22;697;51.114;6.542;2023-04-01T10:24:21;11.00;99.90
1405;DHT22;697;51.114;6.542;2023-04-01T10:27:06;11.00;99.90
1405;DHT22;697;51.114;6.542;2023-04-01T10:36:01;11.20;99.90
1405;DHT22;697;51.114;6.542;2023-04-01T10:39:03;11.20;99.90
1405;DHT22;697;51.114;6.542;2023-04-01T10:42:02;11.20;99.90
1405;DHT22;697;51.114;6.542;2023-04-01T10:44:49;11.20;99.90
1405;DHT22;697;51.114;6.542;2023-04-01T10:47:49;11.40;99.90
1405;DHT22;697;51.114;6.542;2023-04-01T10:53:37;11.50;99.90
1405;DHT22;697;51.114;6.542;2023-04-01T10:56:29;11.60;99.90
1405;DHT22;697;51.114;6.542;2023-04-01T11:03:01;11.70;99.90
1405;DHT22;697;51.114;6.542;2023-04-01T11:09:04;11.70;99.90
1405;DHT22;697;51.114;6.542;2023-04-01T11:12:11;11.70;99.90
1405;DHT22;697;51.114;6.542;2023-04-01T11:18:13;11.70;99.90
1405;DHT22;697;51.114;6.542;2023-04-01T11:21:19;11.70;99.90
1405;DHT22;697;51.114;6.542;2023-04-01T11:24:10;11.80;99.90
1405;DHT22;697;51.114;6.542;2023-04-01T11:26:50;11.80;99.90
1405;DHT22;697;51.114;6.542;2023-04-01T11:29:46;12.00;99.90
1405;DHT22;697;51.114;6.542;2023-04-01T11:32:28;12.00;99.90
1405;DHT22;697;51.114;6.542;2023-04-01T11:38:07;12.10;99.90
1405;DHT22;697;51.114;6.542;2023-04-01T11:40:41;12.20;99.90
1405;DHT22;697;51.114;6.542;2023-04-01T11:43:15;12.40;99.90
1405;DHT22;697;51.114;6.542;2023-04-01T11:45:49;12.40;99.90
1405;DHT22;697;51.114;6.542;2023-04-01T11:51:37;12.40;99.90
1405;DHT22;697;51.114;6.542;2023-04-01T11:54:13;12.40;99.90
1405;DHT22;697;51.114;6.542;2023-04-01T11:56:55;12.40;99.90
1405;DHT22;697;51.114;6.542;2023-04-01T11:59:47;12.50;99.90
1405;DHT22;697;51.114;6.542;2023-04-01T12:02:25;12.40;99.90
1405;DHT22;697;51.114;6.542;2023-04-01T12:05:00;12.50;99.90
1405;DHT22;697;51.114;6.542;2023-04-01T12:07:50;12.50;99.90
1405;DHT22;697;51.114;6.542;2023-04-01T12:10:21;12.50;99.90
1405;DHT22;697;51.114;6.542;2023-04-01T12:12:59;12.50;99.90
1405;DHT22;697;51.114;6.542;2023-04-01T12:15:36;12.40;99.90
1405;DHT22;697;51.114;6.542;2023-04-01T12:18:17;12.30;99.90
1405;DHT22;697;51.114;6.542;2023-04-01T12:20:50;12.30;99.90
1405;DHT22;697;51.114;6.542;2023-04-01T12:23:42;12.30;99.90
1405;DHT22;697;51.114;6.542;2023-04-01T12:26:25;12.10;99.90
1405;DHT22;697;51.114;6.542;2023-04-01T12:29:09;12.10;99.90
1405;DHT22;697;51.114;6.542;2023-04-01T12:31:47;12.10;99.90
1405;DHT22;697;51.114;6.542;2023-04-01T12:34:42;12.10;99.90
1405;DHT22;697;51.114;6.542;2023-04-01T12:37:16;12.00;99.90
1405;DHT22;697;51.114;6.542;2023-04-01T12:40:01;12.00;99.90
1405;DHT22;697;51.114;6.542;2023-04-01T12:42:43;11.90;99.90
1405;DHT22;697;51.114;6.542;2023-04-01T12:45:28;11.90;99.90
1405;DHT22;697;51.114;6.542;2023-04-01T12:48:14;11.90;99.90
1405;DHT22;697;51.114;6.542;2023-04-01T12:53:49;11.90;99.90
1405;DHT22;697;51.114;6.542;2023-04-01T12:56:26;11.90;99.90
1405;DHT22;697;51.114;6.542;2023-04-01T12:59:08;11.90;99.90
1405;DHT22;697;51.114;6.542;2023-04-01T13:02:01;11.80;99.90
1405;DHT22;697;51.114;6.542;2023-04-01T13:04:51;11.70;99.90
1405;DHT22;697;51.114;6.542;2023-04-01T13:07:41;11.70;99.90
1405;DHT22;697;51.114;6.542;2023-04-01T13:10:20;11.70;99.90
1405;DHT22;697;51.114;6.542;2023-04-01T13:13:14;11.70;99.90
1405;DHT22;697;51.114;6.542;2023-04-01T13:15:49;11.80;99.90
1405;DHT22;697;51.114;6.542;2023-04-01T13:18:25;11.70;99.90
1405;DHT22;697;51.114;6.542;2023-04-01T13:21:03;11.70;99.90
1405;DHT22;697;51.114;6.542;2023-04-01T13:23:49;11.80;99.90
1405;DHT22;697;51.114;6.542;2023-04-01T13:26:24;11.80;99.90
1405;DHT22;697;51.114;6.542;2023-04-01T13:29:00;11.80;99.90
1405;DHT22;697;51.114;6.542;2023-04-01T13:31:40;11.90;99.90
1405;DHT22;697;51.114;6.542;2023-04-01T13:34:27;12.00;99.90
1405;DHT22;697;51.114;6.542;2023-04-01T13:37:05;12.10;99.90
1405;DHT22;697;51.114;6.542;2023-04-01T13:39:57;12.10;99.90
1405;DHT22;697;51.114;6.542;2023-04-01T13:42:33;12.10;99.90
1405;DHT22;697;51.114;6.542;2023-04-01T13:45:10;12.20;99.90
1405;DHT22;697;51.114;6.542;2023-04-01T13:48:03;12.20;99.90
1405;DHT22;697;51.114;6.542;2023-04-01T13:50:52;12.20;99.90
1405;DHT22;697;51.114;6.542;2023-04-01T13:53:43;12.20;99.90
1405;DHT22;697;51.114;6.542;2023-04-01T13:56:24;12.30;99.90
1405;DHT22;697;51.114;6.542;2023-04-01T13:59:25;12.30;99.90
1405;DHT22;697;51.114;6.542;2023-04-01T14:02:07;12.30;99.90
1405;DHT22;697;51.114;6.542;2023-04-01T14:04:53;12.20;99.90
1405;DHT22;697;51.114;6.542;2023-04-01T14:07:40;12.20;99.90
1405;DHT22;697;51.114;6.542;2023-04-01T14:10:19;12.20;99.90
1405;DHT22;697;51.114;6.542;2023-04-01T14:12:57;12.20;99.90
1405;DHT22;697;51.114;6.542;2023-04-01T14:15:48;12.20;99.90
1405;DHT22;697;51.114;6.542;2023-04-01T14:18:52;12.20;99.90
1405;DHT22;697;51.114;6.542;2023-04-01T14:21:32;12.20;99.90
1405;DHT22;697;51.114;6.542;2023-04-01T14:24:21;12.20;99.90
1405;DHT22;697;51.114;6.542;2023-04-01T14:27:18;12.10;99.90
1405;DHT22;697;51.114;6.542;2023-04-01T14:29:58;12.10;99.90
1405;DHT22;697;51.114;6.542;2023-04-01T14:32:34;12.10;99.90
1405;DHT22;697;51.114;6.542;2023-04-01T14:35:25;12.00;99.90
1405;DHT22;697;51.114;6.542;2023-04-01T14:38:04;11.90;99.90
1405;DHT22;697;51.114;6.542;2023-04-01T14:40:53;11.80;99.90
1405;DHT22;697;51.114;6.542;2023-04-01T14:43:47;11.80;99.90
1405;DHT22;697;51.114;6.542;2023-04-01T14:46:34;11.80;99.90
1405;DHT22;697;51.114;6.542;2023-04-01T14:49:15;11.70;99.90
1405;DHT22;697;51.114;6.542;2023-04-01T14:51:45;11.80;99.90
1405;DHT22;697;51.114;6.542;2023-04-01T14:54:15;11.80;99.90
1405;DHT22;697;51.114;6.542;2023-04-01T14:56:49;11.80;99.90
1405;DHT22;697;51.114;6.542;2023-04-01T14:59:27;11.80;99.90
1405;DHT22;697;51.114;6.542;2023-04-01T15:01:59;11.70;99.90
1405;DHT22;697;51.114;6.542;2023-04-01T15:04:43;11.60;99.90
1405;DHT22;697;51.114;6.542;2023-04-01T15:07:52;11.60;99.90
1405;DHT22;697;51.114;6.542;2023-04-01T15:10:41;11.70;99.90
1405;DHT22;697;51.114;6.542;2023-04-01T15:13:13;11.70;99.90
1405;DHT22;697;51.114;6.542;2023-04-01T15:15:53;11.80;99.90
1405;DHT22;697;51.114;6.542;2023-04-01T15:18:31;11.80;99.90
1405;DHT22;697;51.114;6.542;2023-04-01T15:21:17;11.90;99.90
1405;DHT22;697;51.114;6.542;2023-04-01T15:23:56;12.10;99.90
1405;DHT22;697;51.114;6.542;2023-04-01T15:26:51;12.10;99.90
1405;DHT22;697;51.114;6.542;2023-04-01T15:30:00;12.20;99.90
1405;DHT22;697;51.114;6.542;2023-04-01T15:32:42;12.10;99.90
1405;DHT22;697;51.114;6.542;2023-04-01T15:35:21;12.00;99.90
1405;DHT22;697;51.114;6.542;2023-04-01T15:37:54;12.00;99.90
1405;DHT22;697;51.114;6.542;2023-04-01T15:40:28;12.00;99.90
1405;DHT22;697;51.114;6.542;2023-04-01T15:43:10;12.10;99.90
1405;DHT22;697;51.114;6.542;2023-04-01T15:45:51;12.20;99.90
1405;DHT22;697;51.114;6.542;2023-04-01T15:48:40;12.20;99.90
1405;DHT22;697;51.114;6.542;2023-04-01T15:51:31;12.30;99.90
1405;DHT22;697;51.114;6.542;2023-04-01T15:54:18;12.40;99.90
1405;DHT22;697;51.114;6.542;2023-04-01T15:56:53;12.40;99.90
1405;DHT22;697;51.114;6.542;2023-04-01T15:59:41;12.30;99.90
1405;DHT22;697;51.114;6.542;2023-04-01T16:02:17;12.30;99.90
1405;DHT22;697;51.114;6.542;2023-04-01T16:04:55;12.10;99.90
1405;DHT22;697;51.114;6.542;2023-04-01T16:07:43;12.00;99.90
1405;DHT22;697;51.114;6.542;2023-04-01T16:10:38;12.00;99.90
1405;DHT22;697;51.114;6.542;2023-04-01T16:13:24;12.00;99.90
1405;DHT22;697;51.114;6.542;2023-04-01T16:16:00;12.10;99.90
1405;DHT22;697;51.114;6.542;2023-04-01T16:18:40;12.00;99.90
1405;DHT22;697;51.114;6.542;2023-04-01T16:21:21;12.00;99.90
1405;DHT22;697;51.114;6.542;2023-04-01T16:23:55;11.90;99.90
1405;DHT22;697;51.114;6.542;2023-04-01T16:26:26;11.80;99.90
1405;DHT22;697;51.114;6.542;2023-04-01T16:29:02;11.80;99.90
1405;DHT22;697;51.114;6.542;2023-04-01T16:31:35;11.70;99.90
1405;DHT22;697;51.114;6.542;2023-04-01T16:34:10;11.60;99.90
1405;DHT22;697;51.114;6.542;2023-04-01T16:36:43;11.60;99.90
1405;DHT22;697;51.114;6.542;2023-04-01T16:39:22;11.50;99.90
1405;DHT22;697;51.114;6.542;2023-04-01T16:42:12;11.50;99.90
1405;DHT22;697;51.114;6.542;2023-04-01T16:44:50;11.40;99.90
1405;DHT22;697;51.114;6.542;2023-04-01T16:47:22;11.40;99.90
1405;DHT22;697;51.114;6.542;2023-04-01T16:49:58;11.40;99.90
1405;DHT22;697;51.114;6.542;2023-04-01T16:52:42;11.40;99.90
1405;DHT22;697;51.114;6.542;2023-04-01T16:55:15;11.30;99.90
1405;DHT22;697;51.114;6.542;2023-04-01T16:57:48;11.30;99.90
1405;DHT22;697;51.114;6.542;2023-04-01T17:00:24;11.30;99.90
1405;DHT22;697;51.114;6.542;2023-04-01T17:02:58;11.30;99.90
1405;DHT22;697;51.114;6.542;2023-04-01T17:05:42;11.20;99.90
1405;DHT22;697;51.114;6.542;2023-04-01T17:08:17;11.20;99.90
1405;DHT22;697;51.114;6.542;2023-04-01T17:10:51;11.10;99.90
1405;DHT22;697;51.114;6.542;2023-04-01T17:13:35;11.10;99.90
1405;DHT22;697;51.114;6.542;2023-04-01T17:16:17;11.00;99.90
1405;DHT22;697;51.114;6.542;2023-04-01T17:18:52;11.00;99.90
1405;DHT22;697;51.114;6.542;2023-04-01T17:21:38;11.00;99.90
1405;DHT22;697;51.114;6.542;2023-04-01T17:24:24;11.00;99.90
1405;DHT22;697;51.114;6.542;2023-04-01T17:26:57;10.90;99.90
1405;DHT22;697;51.114;6.542;2023-04-01T17:29:37;10.90;99.90
1405;DHT22;697;51.114;6.542;2023-04-01T17:32:13;10.90;99.90
1405;DHT22;697;51.114;6.542;2023-04-01T17:34:54;10.90;99.90
1405;DHT22;697;51.114;6.542;2023-04-01T17:37:34;10.90;99.90
1405;DHT22;697;51.114;6.542;2023-04-01T17:40:21;10.90;99.90
1405;DHT22;697;51.114;6.542;2023-04-01T17:42:56;10.80;99.90
1405;DHT22;697;51.114;6.542;2023-04-01T17:45:31;10.80;99.90
1405;DHT22;697;51.114;6.542;2023-04-01T17:48:08;10.70;99.90
1405;DHT22;697;51.114;6.542;2023-04-01T17:50:52;10.70;99.90
1405;DHT22;697;51.114;6.542;2023-04-01T17:53:30;10.70;99.90
1405;DHT22;697;51.114;6.542;2023-04-01T17:56:12;10.70;99.90
1405;DHT22;697;51.114;6.542;2023-04-01T17:58:45;10.70;99.90
1405;DHT22;697;51.114;6.542;2023-04-01T18:01:30;10.60;99.90
1405;DHT22;697;51.114;6.542;2023-04-01T18:04:15;10.60;99.90
1405;DHT22;697;51.114;6.542;2023-04-01T18:07:04;10.50;99.90
1405;DHT22;697;51.114;6.542;2023-04-01T18:09:41;10.60;99.90
1405;DHT22;697;51.114;6.542;2023-04-01T18:12:18;10.50;99.90
1405;DHT22;697;51.114;6.542;2023-04-01T18:17:45;10.50;99.90
1405;DHT22;697;51.114;6.542;2023-04-01T18:20:35;10.50;99.90
1405;DHT22;697;51.114;6.542;2023-04-01T18:23:06;10.50;99.90